createdAt,value
2018-12-22T00:02:09.800Z,200.23
2018-12-22T00:04:38.366Z,201.90
2018-12-22T00:07:07.029Z,182.30
2018-12-22T00:09:35.621Z,167.30
2018-12-22T00:12:04.311Z,185.70
2018-12-22T00:14:32.965Z,242.30
2018-12-22T00:17:01.563Z,153.73
2018-12-22T00:19:30.156Z,179.87
2018-12-22T00:21:58.721Z,211.23
2018-12-22T00:24:27.326Z,165.13
2018-12-22T00:26:55.926Z,184.63
2018-12-22T00:29:24.562Z,142.37
2018-12-22T00:31:53.167Z,148.40
2018-12-22T00:34:21.740Z,148.63
2018-12-22T00:36:50.343Z,140.80
2018-12-22T00:39:18.952Z,147.13
2018-12-22T00:41:47.566Z,173.97
2018-12-22T00:44:16.231Z,147.53
2018-12-22T00:46:44.845Z,137.27
2018-12-22T00:49:13.409Z,151.37
2018-12-22T00:51:41.989Z,161.20
2018-12-22T00:54:41.668Z,136.20
2018-12-22T00:57:10.341Z,146.93
2018-12-22T00:59:38.939Z,164.37
2018-12-22T01:02:07.550Z,155.23
2018-12-22T01:04:36.124Z,153.03
2018-12-22T01:07:04.697Z,148.67
2018-12-22T01:09:33.320Z,165.20
2018-12-22T01:12:01.920Z,163.27
2018-12-22T01:14:30.510Z,151.37
2018-12-22T01:17:03.241Z,153.60
2018-12-22T01:19:31.822Z,159.90
2018-12-22T01:22:00.463Z,160.93
2018-12-22T01:24:29.104Z,146.77
2018-12-22T01:26:57.707Z,167.97
2018-12-22T01:29:26.290Z,155.03
2018-12-22T01:31:54.839Z,166.97
2018-12-22T01:34:23.464Z,149.27
2018-12-22T01:36:52.083Z,183.97
2018-12-22T01:39:20.643Z,137.40
2018-12-22T01:41:49.262Z,136.30
2018-12-22T01:44:17.855Z,217.90
2018-12-22T01:46:46.434Z,231.57
2018-12-22T01:49:15.068Z,139.47
2018-12-22T01:51:43.766Z,150.53
2018-12-22T01:54:12.418Z,146.80
2018-12-22T01:56:41.011Z,129.93
2018-12-22T01:59:09.625Z,165.90
2018-12-22T02:01:38.227Z,142.53
2018-12-22T02:04:06.800Z,149.10
2018-12-22T02:06:36.529Z,134.93
2018-12-22T02:09:07.206Z,168.47
2018-12-22T02:11:35.820Z,154.17
2018-12-22T02:14:04.667Z,138.23
2018-12-22T02:16:33.345Z,134.87
2018-12-22T02:19:01.914Z,150.30
2018-12-22T02:21:30.528Z,139.07
2018-12-22T02:23:59.105Z,124.50
2018-12-22T02:26:27.699Z,125.97
2018-12-22T02:28:56.862Z,128.07
2018-12-22T02:31:25.671Z,124.17
2018-12-22T02:33:54.224Z,132.70
2018-12-22T02:36:22.863Z,138.17
2018-12-22T02:38:51.416Z,140.47
2018-12-22T02:41:20.082Z,206.77
2018-12-22T02:43:48.639Z,169.33
2018-12-22T02:46:17.202Z,154.80
2018-12-22T02:48:45.791Z,123.73
2018-12-22T02:51:14.357Z,132.53
2018-12-22T02:53:42.920Z,136.57
2018-12-22T02:56:11.489Z,142.70
2018-12-22T02:58:40.086Z,149.13
2018-12-22T03:01:08.676Z,146.90
2018-12-22T03:03:37.424Z,192.13
2018-12-22T03:06:05.972Z,183.30
2018-12-22T03:08:34.528Z,143.80
2018-12-22T03:11:03.144Z,133.80
2018-12-22T03:13:31.748Z,134.43
2018-12-22T03:16:00.410Z,127.17
2018-12-22T03:18:29.001Z,138.33
2018-12-22T03:20:57.570Z,128.43
2018-12-22T03:23:26.206Z,120.27
2018-12-22T03:25:54.734Z,124.13
2018-12-22T03:28:23.374Z,123.00
2018-12-22T03:30:51.961Z,118.50
2018-12-22T03:33:20.613Z,132.83
2018-12-22T03:35:49.905Z,127.23
2018-12-22T03:38:18.520Z,122.63
2018-12-22T03:40:47.122Z,125.40
2018-12-22T03:43:15.700Z,111.80
2018-12-22T03:45:44.255Z,116.70
2018-12-22T03:48:12.918Z,119.13
2018-12-22T03:50:41.525Z,112.03
2018-12-22T03:53:10.107Z,134.67
2018-12-22T03:55:38.680Z,142.97
2018-12-22T03:58:07.270Z,129.20
2018-12-22T04:00:35.852Z,124.67
2018-12-22T04:03:04.397Z,125.30
2018-12-22T04:05:33.015Z,123.27
2018-12-22T04:08:01.607Z,126.37
2018-12-22T04:10:30.242Z,132.43
2018-12-22T04:12:58.767Z,138.90
2018-12-22T04:15:27.428Z,138.80
2018-12-22T04:17:56.020Z,129.80
2018-12-22T04:20:24.618Z,127.03
2018-12-22T04:22:53.159Z,127.73
2018-12-22T04:25:21.775Z,133.10
2018-12-22T04:27:50.547Z,136.73
2018-12-22T04:30:19.233Z,122.80
2018-12-22T04:32:47.840Z,124.40
2018-12-22T04:35:16.429Z,127.30
2018-12-22T04:37:44.973Z,120.63
2018-12-22T04:40:13.545Z,120.97
2018-12-22T04:42:42.068Z,117.17
2018-12-22T04:45:10.647Z,133.27
2018-12-22T04:47:40.107Z,122.70
2018-12-22T04:50:08.805Z,121.03
2018-12-22T04:52:37.404Z,123.63
2018-12-22T04:55:06.308Z,123.30
2018-12-22T04:57:34.996Z,116.00
2018-12-22T05:00:09.810Z,132.37
2018-12-22T05:02:38.411Z,140.07
2018-12-22T05:05:07.183Z,113.67
2018-12-22T05:07:35.776Z,135.23
2018-12-22T05:10:04.764Z,133.17
2018-12-22T05:12:33.401Z,125.60
2018-12-22T05:15:01.990Z,129.40
2018-12-22T05:17:30.544Z,131.67
2018-12-22T05:19:59.097Z,137.63
2018-12-22T05:22:27.912Z,132.80
2018-12-22T05:24:56.455Z,142.60
2018-12-22T05:27:25.003Z,126.37
2018-12-22T05:29:53.571Z,133.40
2018-12-22T05:32:22.237Z,126.30
2018-12-22T05:34:50.862Z,127.57
2018-12-22T05:37:19.481Z,134.87
2018-12-22T05:39:48.091Z,128.40
2018-12-22T05:42:16.711Z,135.27
2018-12-22T05:44:45.280Z,129.40
2018-12-22T05:47:13.868Z,144.27
2018-12-22T05:49:42.520Z,137.00
2018-12-22T05:52:11.112Z,137.87
2018-12-22T05:54:39.728Z,136.03
2018-12-22T05:57:08.263Z,144.33
2018-12-22T05:59:36.826Z,149.53
2018-12-22T06:02:05.426Z,139.57
2018-12-22T06:04:34.050Z,133.67
2018-12-22T06:07:03.105Z,142.83
2018-12-22T06:09:31.672Z,128.53
2018-12-22T06:12:00.302Z,137.47
2018-12-22T06:14:28.865Z,134.33
2018-12-22T06:16:57.442Z,133.93
2018-12-22T06:19:26.052Z,110.90
2018-12-22T06:21:54.655Z,119.17
2018-12-22T06:24:23.179Z,115.77
2018-12-22T06:26:51.742Z,107.80
2018-12-22T06:29:21.378Z,125.07
2018-12-22T06:31:49.991Z,127.10
2018-12-22T06:34:18.618Z,115.70
2018-12-22T06:36:47.545Z,115.90
2018-12-22T06:39:16.055Z,107.07
2018-12-22T06:41:44.658Z,106.20
2018-12-22T06:44:13.768Z,101.57
2018-12-22T06:46:43.259Z,96.93
2018-12-22T06:49:13.405Z,102.17
2018-12-22T06:51:42.124Z,110.97
2018-12-22T06:54:10.745Z,115.60
2018-12-22T06:56:39.473Z,109.17
2018-12-22T06:59:08.115Z,110.00
2018-12-22T07:01:36.665Z,108.93
2018-12-22T07:04:05.247Z,114.83
2018-12-22T07:06:33.832Z,106.70
2018-12-22T07:09:02.431Z,113.63
2018-12-22T07:11:30.988Z,116.73
2018-12-22T07:13:59.653Z,115.03
2018-12-22T07:16:28.241Z,115.70
2018-12-22T07:18:56.805Z,115.47
2018-12-22T07:21:25.579Z,125.23
2018-12-22T07:23:54.136Z,113.53
2018-12-22T07:26:22.707Z,114.67
2018-12-22T07:28:52.784Z,114.43
2018-12-22T07:31:21.438Z,130.30
2018-12-22T07:33:50.409Z,131.93
2018-12-22T07:36:19.413Z,134.00
2018-12-22T07:38:48.277Z,133.53
2018-12-22T07:41:18.737Z,132.00
2018-12-22T07:43:47.529Z,123.27
2018-12-22T07:46:18.121Z,123.67
2018-12-22T07:48:47.057Z,128.27
2018-12-22T07:51:15.862Z,118.67
2018-12-22T07:53:44.674Z,132.30
2018-12-22T07:56:13.772Z,126.30
2018-12-22T07:58:43.662Z,117.63
2018-12-22T08:01:13.300Z,121.67
2018-12-22T08:03:42.235Z,133.57
2018-12-22T08:06:12.058Z,160.97
2018-12-22T08:08:41.214Z,128.73
2018-12-22T08:11:09.879Z,130.40
2018-12-22T08:13:41.141Z,123.23
2018-12-22T08:16:09.847Z,137.23
2018-12-22T08:18:39.067Z,128.23
2018-12-22T08:21:07.779Z,142.07
2018-12-22T08:23:36.552Z,139.87
2018-12-22T08:26:05.935Z,146.73
2018-12-22T08:28:35.407Z,150.70
2018-12-22T08:31:04.427Z,164.70
2018-12-22T08:33:33.149Z,161.53
2018-12-22T08:36:02.209Z,141.73
2018-12-22T08:38:31.349Z,167.30
2018-12-22T08:41:00.202Z,150.67
2018-12-22T08:43:29.790Z,157.63
2018-12-22T08:45:58.998Z,158.67
2018-12-22T08:48:27.779Z,159.13
2018-12-22T08:50:57.529Z,165.80
2018-12-22T08:53:27.224Z,177.50
2018-12-22T08:55:56.000Z,169.07
2018-12-22T08:58:25.727Z,170.03
2018-12-22T09:00:54.478Z,202.20
2018-12-22T09:03:23.138Z,163.97
2018-12-22T09:05:52.407Z,158.93
2018-12-22T09:08:21.316Z,176.27
2018-12-22T09:10:50.182Z,163.40
2018-12-22T09:13:20.984Z,158.97
2018-12-22T09:15:50.103Z,165.47
2018-12-22T09:18:19.171Z,152.27
2018-12-22T09:20:47.933Z,160.00
2018-12-22T09:23:16.847Z,154.33
2018-12-22T09:25:45.475Z,151.73
2018-12-22T09:28:15.056Z,159.43
2018-12-22T09:30:44.023Z,156.50
2018-12-22T09:33:12.967Z,157.20
2018-12-22T09:35:41.612Z,153.70
2018-12-22T09:38:10.483Z,158.27
2018-12-22T09:40:39.456Z,161.10
2018-12-22T09:43:08.474Z,157.67
2018-12-22T09:45:37.149Z,164.13
2018-12-22T09:48:07.319Z,165.70
2018-12-22T09:50:36.983Z,178.80
2018-12-22T09:53:05.671Z,173.93
2018-12-22T09:55:34.972Z,165.80
2018-12-22T09:58:04.529Z,175.23
2018-12-22T10:00:34.857Z,182.10
2018-12-22T10:03:03.837Z,176.50
2018-12-22T10:05:34.691Z,177.90
2018-12-22T10:08:03.353Z,171.93
2018-12-22T10:10:32.214Z,185.50
2018-12-22T10:13:00.999Z,175.40
2018-12-22T10:15:30.316Z,175.13
2018-12-22T10:18:00.017Z,172.90
2018-12-22T10:20:29.102Z,174.43
2018-12-22T10:22:58.032Z,177.00
2018-12-22T10:25:27.388Z,183.07
2018-12-22T10:27:56.537Z,170.63
2018-12-22T10:30:25.366Z,184.03
2018-12-22T10:32:54.500Z,185.27
2018-12-22T10:35:28.887Z,177.63
2018-12-22T10:37:57.891Z,185.50
2018-12-22T10:40:27.465Z,175.10
2018-12-22T10:42:56.398Z,191.97
2018-12-22T10:46:28.486Z,183.77
2018-12-22T10:48:57.240Z,181.70
2018-12-22T10:51:26.135Z,180.00
2018-12-22T10:53:55.036Z,181.67
2018-12-22T10:56:23.820Z,188.77
2018-12-22T10:58:53.067Z,189.37
2018-12-22T11:01:26.398Z,196.73
2018-12-22T11:03:53.604Z,188.57
2018-12-22T11:06:22.211Z,189.63
2018-12-22T11:08:51.512Z,192.10
2018-12-22T11:11:20.692Z,196.77
2018-12-22T11:13:49.521Z,188.93
2018-12-22T11:16:18.690Z,196.37
2018-12-22T11:18:48.549Z,200.97
2018-12-22T11:21:17.158Z,188.93
2018-12-22T11:23:46.430Z,188.40
2018-12-22T11:26:15.692Z,197.10
2018-12-22T11:28:46.339Z,184.80
2018-12-22T11:31:16.072Z,194.13
2018-12-22T11:33:44.737Z,198.63
2018-12-22T11:36:13.347Z,203.67
2018-12-22T11:38:42.269Z,202.67
2018-12-22T11:41:11.183Z,198.97
2018-12-22T11:43:39.883Z,193.37
2018-12-22T11:46:09.229Z,197.53
2018-12-22T11:49:53.544Z,197.00
2018-12-22T11:52:23.133Z,193.03
2018-12-22T11:54:51.869Z,200.43
2018-12-22T11:57:21.425Z,195.80
2018-12-22T11:59:51.064Z,198.47
2018-12-22T12:02:20.031Z,188.33
2018-12-22T12:04:49.021Z,191.13
2018-12-22T12:07:18.355Z,188.67
2018-12-22T12:09:47.566Z,196.23
2018-12-22T12:12:16.360Z,189.03
2018-12-22T12:14:45.776Z,183.97
2018-12-22T12:17:38.243Z,184.50
2018-12-22T12:20:08.558Z,181.83
2018-12-22T12:22:38.620Z,177.40
2018-12-22T12:25:08.094Z,179.80
2018-12-22T12:27:36.674Z,177.10
2018-12-22T12:30:18.041Z,176.37
2018-12-22T12:32:48.578Z,181.60
2018-12-22T12:35:18.302Z,180.13
2018-12-22T12:37:47.063Z,169.03
2018-12-22T12:40:18.480Z,167.77
2018-12-22T12:42:47.307Z,175.70
2018-12-22T12:45:15.938Z,160.10
2018-12-22T12:47:46.064Z,177.93
2018-12-22T12:50:19.312Z,165.93
2018-12-22T12:52:48.215Z,164.00
2018-12-22T12:55:16.892Z,142.43
2018-12-22T12:57:45.723Z,138.80
2018-12-22T13:00:16.207Z,120.70
2018-12-22T13:02:46.536Z,124.70
2018-12-22T13:05:15.274Z,141.60
2018-12-22T13:07:44.405Z,136.03
2018-12-22T13:10:14.878Z,144.10
2018-12-22T14:14:26.906Z,227.57
2018-12-22T14:17:07.044Z,210.53
2018-12-22T14:19:35.939Z,204.17
2018-12-22T14:22:05.398Z,215.43
2018-12-22T14:24:38.317Z,215.00
2018-12-22T14:27:06.954Z,195.53
2018-12-22T14:29:35.616Z,206.83
2018-12-22T14:32:04.307Z,200.33
2018-12-22T14:34:51.641Z,197.97
2018-12-22T14:37:20.251Z,197.70
2018-12-22T14:39:48.810Z,201.27
2018-12-22T14:42:17.441Z,199.80
2018-12-22T14:44:46.048Z,200.30
2018-12-22T14:47:14.593Z,194.73
2018-12-22T14:49:43.175Z,209.50
2018-12-22T14:52:11.724Z,203.73
2018-12-22T14:54:40.301Z,212.27
2018-12-22T14:57:08.913Z,198.10
2018-12-22T14:59:38.538Z,203.50
2018-12-22T15:02:07.896Z,208.33
2018-12-22T15:04:37.066Z,214.10
2018-12-22T15:07:06.834Z,203.63
2018-12-22T15:16:21.958Z,205.63
2018-12-22T15:18:50.571Z,204.67
2018-12-22T15:21:19.177Z,202.97
2018-12-22T15:23:47.831Z,195.87
2018-12-22T15:26:16.414Z,195.93
2018-12-22T15:28:47.302Z,224.53
2018-12-22T15:31:15.666Z,193.77
2018-12-22T15:33:44.276Z,203.07
2018-12-22T15:36:12.932Z,194.83
2018-12-22T15:38:41.518Z,186.10
2018-12-22T15:41:10.815Z,188.30
2018-12-22T15:43:39.473Z,197.63
2018-12-22T15:46:08.406Z,195.60
2018-12-22T15:48:36.995Z,204.90
2018-12-22T15:51:05.620Z,196.60
2018-12-22T15:53:34.370Z,205.70
2018-12-22T15:56:02.940Z,209.53
2018-12-22T15:58:31.541Z,223.50
2018-12-22T16:01:00.128Z,210.77
2018-12-22T16:03:28.723Z,194.60
2018-12-22T16:05:57.319Z,182.50
2018-12-22T16:08:25.900Z,186.17
2018-12-22T16:10:54.462Z,179.63
2018-12-22T16:13:23.048Z,181.20
2018-12-22T16:15:51.596Z,175.97
2018-12-22T16:18:20.259Z,177.37
2018-12-22T16:20:48.872Z,188.07
2018-12-22T16:23:17.507Z,190.43
2018-12-22T16:25:46.109Z,179.57
2018-12-22T16:28:21.752Z,197.70
2018-12-22T16:30:53.429Z,196.80
2018-12-22T16:33:22.109Z,196.40
2018-12-22T16:35:50.821Z,182.73
2018-12-22T16:38:19.638Z,187.67
2018-12-22T16:40:48.728Z,199.60
2018-12-22T16:43:19.953Z,187.90
2018-12-22T16:45:50.782Z,185.53
2018-12-22T16:48:21.783Z,188.33
2018-12-22T16:50:50.452Z,185.53
2018-12-22T16:53:19.053Z,198.97
2018-12-22T16:55:47.695Z,185.70
2018-12-22T16:58:31.203Z,194.73
2018-12-22T17:01:06.801Z,185.80
2018-12-22T17:03:35.664Z,189.07
2018-12-22T17:06:06.491Z,202.50
2018-12-22T17:08:35.215Z,201.43
2018-12-22T17:11:05.383Z,179.20
2018-12-22T17:13:33.983Z,174.17
2018-12-22T17:16:03.204Z,187.33
2018-12-22T17:18:31.809Z,171.10
2018-12-22T17:21:08.846Z,172.30
2018-12-22T17:23:57.223Z,169.67
2018-12-22T17:26:28.568Z,177.13
2018-12-22T17:28:57.187Z,167.90
2018-12-22T17:31:25.891Z,173.63
2018-12-22T17:33:54.490Z,166.47
2018-12-22T17:39:55.972Z,157.63
2018-12-22T17:42:24.769Z,162.57
2018-12-22T17:44:53.359Z,158.10
2018-12-22T17:47:22.000Z,155.87
2018-12-22T17:49:50.568Z,158.87
2018-12-22T17:52:19.160Z,155.97
2018-12-22T17:54:47.774Z,157.03
2018-12-22T17:57:16.668Z,160.93
2018-12-22T17:59:45.381Z,162.43
2018-12-22T18:02:14.067Z,152.40
2018-12-22T18:04:42.718Z,161.17
2018-12-22T18:07:11.370Z,151.27
2018-12-22T18:09:39.972Z,150.93
2018-12-22T18:12:08.640Z,156.20
2018-12-22T18:14:37.258Z,150.60
2018-12-22T18:17:05.896Z,156.67
2018-12-22T18:19:34.598Z,146.57
2018-12-22T18:22:03.280Z,147.47
2018-12-22T18:24:31.953Z,147.07
2018-12-22T18:27:00.601Z,155.77
2018-12-22T18:29:29.170Z,158.03
2018-12-22T18:31:57.775Z,175.13
2018-12-22T18:34:26.427Z,169.63
2018-12-22T18:36:54.994Z,161.33
2018-12-22T18:39:23.623Z,174.00
2018-12-22T18:41:52.224Z,180.23
2018-12-22T18:44:20.834Z,168.93
2018-12-22T18:46:49.502Z,177.80
2018-12-22T18:49:18.121Z,176.37
2018-12-22T18:51:46.790Z,177.67
2018-12-22T18:54:15.627Z,174.70
2018-12-22T18:56:44.273Z,176.53
2018-12-22T18:59:13.123Z,182.00
2018-12-22T19:01:41.735Z,177.03
2018-12-22T19:04:10.302Z,175.97
2018-12-22T19:06:39.234Z,181.73
2018-12-22T19:09:11.711Z,161.57
2018-12-22T19:11:40.336Z,166.83
2018-12-22T19:14:08.922Z,169.90
2018-12-22T19:16:37.545Z,168.67
2018-12-22T19:19:36.736Z,185.10
2018-12-22T19:22:05.406Z,211.03
2018-12-22T19:24:34.077Z,195.40
2018-12-22T19:27:02.728Z,194.40
2018-12-22T19:29:31.372Z,212.13
2018-12-22T19:31:59.914Z,217.53
2018-12-22T19:34:28.456Z,215.97
2018-12-22T19:36:57.065Z,225.63
2018-12-22T19:39:25.664Z,232.73
2018-12-22T19:41:54.288Z,223.13
2018-12-22T19:44:22.902Z,217.23
2018-12-22T19:46:51.690Z,221.40
2018-12-22T19:49:20.244Z,216.50
2018-12-22T19:51:48.862Z,210.37
2018-12-22T19:54:17.568Z,219.90
2018-12-22T19:56:46.163Z,203.80
2018-12-22T19:59:14.717Z,194.17
2018-12-22T20:01:43.304Z,202.97
2018-12-22T20:04:11.964Z,198.13
2018-12-22T20:06:40.805Z,205.73
2018-12-22T20:09:09.385Z,216.00
2018-12-22T20:11:38.148Z,214.83
2018-12-22T20:14:06.831Z,212.53
2018-12-22T20:16:35.471Z,211.53
2018-12-22T20:19:04.064Z,208.70
2018-12-22T20:21:32.636Z,197.50
2018-12-22T20:24:01.277Z,207.10
2018-12-22T20:26:30.239Z,212.97
2018-12-22T20:28:58.850Z,204.73
2018-12-22T20:31:28.176Z,204.30
2018-12-22T20:33:56.708Z,192.73
2018-12-22T20:36:25.389Z,199.93
2018-12-22T20:38:53.925Z,178.90
2018-12-22T20:41:22.525Z,188.80
2018-12-22T20:43:51.783Z,163.90
2018-12-22T20:46:20.429Z,193.77
2018-12-22T20:48:49.365Z,185.77
2018-12-22T20:51:17.985Z,187.77
2018-12-22T20:53:46.620Z,194.00
2018-12-22T20:56:15.241Z,194.07
2018-12-22T20:58:43.846Z,205.67
2018-12-22T21:01:12.399Z,209.87
2018-12-22T21:03:41.693Z,192.03
2018-12-22T21:06:18.571Z,208.87
2018-12-22T21:08:47.191Z,198.83
2018-12-22T21:11:15.823Z,200.87
2018-12-22T21:13:44.524Z,206.93
2018-12-22T21:16:13.135Z,206.13
2018-12-22T21:18:41.736Z,203.23
2018-12-22T21:21:10.324Z,218.17
2018-12-22T21:23:38.928Z,211.33
2018-12-22T21:26:07.567Z,206.07
2018-12-22T21:28:38.069Z,204.63
2018-12-22T21:31:06.783Z,196.53
2018-12-22T21:33:35.331Z,188.37
2018-12-22T21:36:03.973Z,191.90
2018-12-22T21:38:32.581Z,187.13
2018-12-22T21:41:01.224Z,177.80
2018-12-22T21:43:29.787Z,167.07
2018-12-22T21:45:58.353Z,177.40
2018-12-22T21:48:26.944Z,172.47
2018-12-22T21:50:55.520Z,181.80
2018-12-22T21:53:24.156Z,178.73
2018-12-22T21:55:52.671Z,192.37
2018-12-22T21:58:21.227Z,185.50
2018-12-22T22:00:49.814Z,191.23
2018-12-22T22:03:18.429Z,185.83
2018-12-22T22:05:47.093Z,191.10
2018-12-22T22:08:15.867Z,195.30
2018-12-22T22:10:44.518Z,186.73
2018-12-22T22:13:13.123Z,184.20
2018-12-22T22:15:41.777Z,187.17
2018-12-22T22:18:10.379Z,175.67
2018-12-22T22:20:38.981Z,182.20
2018-12-22T22:23:07.611Z,178.23
2018-12-22T22:25:36.555Z,179.23
2018-12-22T22:28:05.087Z,183.77
2018-12-22T22:30:33.678Z,178.20
2018-12-22T22:33:02.256Z,171.03
2018-12-22T22:35:30.837Z,175.00
2018-12-22T22:37:59.467Z,149.80
2018-12-22T22:40:28.105Z,183.27
2018-12-22T22:42:56.759Z,179.90
2018-12-22T22:45:25.375Z,170.60
2018-12-22T22:47:53.994Z,179.13
2018-12-22T22:50:22.511Z,179.07
2018-12-22T22:52:51.075Z,181.63
2018-12-22T22:55:19.611Z,169.23
2018-12-22T22:57:48.351Z,183.17
2018-12-22T23:00:27.275Z,208.47
2018-12-22T23:02:56.445Z,203.00
2018-12-22T23:05:24.997Z,199.10
2018-12-22T23:07:53.594Z,215.30
2018-12-22T23:10:22.390Z,233.60
2018-12-22T23:12:51.218Z,264.60
2018-12-22T23:15:19.819Z,271.00
2018-12-22T23:17:48.415Z,279.33
2018-12-22T23:20:16.966Z,285.70
2018-12-22T23:22:45.768Z,288.47
2018-12-22T23:25:14.398Z,250.43
2018-12-22T23:27:42.959Z,236.63
2018-12-22T23:30:11.604Z,248.37
2018-12-22T23:32:40.183Z,223.80
2018-12-22T23:35:08.740Z,232.30
2018-12-22T23:37:37.335Z,221.20
2018-12-22T23:40:06.059Z,226.67
2018-12-22T23:42:34.612Z,228.90
2018-12-22T23:45:03.247Z,206.33
2018-12-22T23:47:31.816Z,197.37
2018-12-22T23:50:00.397Z,199.33
2018-12-22T23:52:29.011Z,186.03
2018-12-22T23:54:57.592Z,184.40
2018-12-22T23:57:26.179Z,186.17
2018-12-22T23:59:54.749Z,150.00
